Time;durP1;ratioP1;P1;durP2;ratioP2;P2;SDS_P1;SDS_P2;PMS_P1;PMS_P2;Temp;Humidity;BMP_temperature;BMP_pressure;BME280_temperature;BME280_humidity;BME280_pressure;Samples;Min_cycle;Max_cycle;Signal;HPM_P1;HPM_P2
2022/11/16 00:00:19;;;;;;;7.60;6.90;;;11.50;99.90;;;;;;5037319;28;20175;-67
2022/11/16 00:02:46;;;;;;;7.40;6.80;;;11.50;99.90;;;;;;5037242;28;20210;-67
2022/11/16 00:05:12;;;;;;;7.60;7.00;;;11.50;99.90;;;;;;5036819;28;20257;-67
2022/11/16 00:07:38;;;;;;;7.37;6.63;;;11.50;99.90;;;;;;5037420;28;20203;-67
2022/11/16 00:10:04;;;;;;;7.67;7.07;;;11.50;99.90;;;;;;5037105;28;20652;-67
2022/11/16 00:12:30;;;;;;;7.67;6.63;;;11.50;99.90;;;;;;5037506;28;20175;-67
2022/11/16 00:14:55;;;;;;;9.70;7.13;;;11.50;99.90;;;;;;5037350;28;20210;-67
2022/11/16 00:17:21;;;;;;;7.97;7.17;;;11.50;99.90;;;;;;5037471;28;20175;-67
2022/11/16 00:19:47;;;;;;;8.67;6.83;;;11.50;99.90;;;;;;5033446;28;20517;-67
2022/11/16 00:22:12;;;;;;;7.90;7.17;;;11.50;99.90;;;;;;5034442;28;20171;-67
2022/11/16 00:24:38;;;;;;;8.10;7.00;;;11.50;99.90;;;;;;5033895;28;20261;-67
2022/11/16 00:27:04;;;;;;;8.03;7.33;;;11.50;99.90;;;;;;5034097;28;20183;-67
2022/11/16 00:29:29;;;;;;;8.00;7.20;;;11.50;99.90;;;;;;5033937;28;20184;-66
2022/11/16 00:31:55;;;;;;;7.93;7.33;;;11.50;99.90;;;;;;5033870;28;20172;-66
2022/11/16 00:34:22;;;;;;;9.97;7.27;;;11.50;99.90;;;;;;5033977;28;20677;-67
2022/11/16 00:36:48;;;;;;;7.33;6.63;;;11.50;99.90;;;;;;5033936;28;20246;-67
2022/11/16 00:39:15;;;;;;;8.57;7.70;;;11.50;99.90;;;;;;5033612;28;20736;-67
2022/11/16 00:41:42;;;;;;;10.97;8.63;;;11.60;99.90;;;;;;5033753;28;20179;-66
2022/11/16 00:44:08;;;;;;;7.47;6.80;;;11.60;99.90;;;;;;5033646;28;20203;-66
2022/11/16 00:46:33;;;;;;;8.93;7.37;;;11.60;99.90;;;;;;5032409;28;20174;-66
2022/11/16 00:48:59;;;;;;;8.37;7.60;;;11.60;99.90;;;;;;5033649;28;20174;-67
2022/11/16 00:51:24;;;;;;;11.47;7.80;;;11.60;99.90;;;;;;5033418;28;20250;-67
2022/11/16 00:53:50;;;;;;;7.80;7.10;;;11.60;99.90;;;;;;5033421;28;20225;-67
2022/11/16 00:56:16;;;;;;;7.87;7.17;;;11.60;99.90;;;;;;5033585;28;20175;-67
2022/11/16 00:58:41;;;;;;;9.97;8.17;;;11.60;99.90;;;;;;5033718;28;20176;-67
2022/11/16 01:01:08;;;;;;;8.93;8.07;;;11.60;99.90;;;;;;5033433;28;20178;-67
2022/11/16 01:03:35;;;;;;;8.63;7.80;;;11.60;99.90;;;;;;5033202;28;20217;-67
2022/11/16 01:06:07;;;;;;;8.40;7.70;;;11.60;99.90;;;;;;5033361;28;20191;-67
2022/11/16 01:08:35;;;;;;;8.43;7.60;;;11.60;99.90;;;;;;5033312;28;20167;-67
2022/11/16 01:13:52;;;;;;;9.27;8.57;;;11.60;99.90;;;;;;5106511;22;20258;-69
2022/11/16 01:16:20;;;;;;;11.50;7.73;;;11.50;99.90;;;;;;5053416;28;20212;-69
2022/11/16 01:18:51;;;;;;;15.27;7.73;;;11.50;99.90;;;;;;5051991;28;20228;-69
2022/11/16 01:21:17;;;;;;;10.03;7.73;;;11.50;99.90;;;;;;5053037;28;20198;-69
2022/11/16 01:23:43;;;;;;;9.43;8.47;;;11.50;99.90;;;;;;5052842;28;20215;-69
2022/11/16 01:26:09;;;;;;;8.37;7.60;;;11.50;99.90;;;;;;5053112;28;20175;-69
2022/11/16 01:28:35;;;;;;;8.77;7.93;;;11.50;99.90;;;;;;5053009;28;20198;-69
2022/11/16 01:31:01;;;;;;;8.43;7.70;;;11.50;99.90;;;;;;5052646;28;20174;-69
2022/11/16 01:33:27;;;;;;;8.03;7.40;;;11.60;99.90;;;;;;5052860;28;20228;-69
2022/11/16 01:35:53;;;;;;;9.43;7.77;;;11.60;99.90;;;;;;5053002;28;20210;-70
2022/11/16 01:38:19;;;;;;;10.27;9.30;;;11.60;99.90;;;;;;5053120;28;20208;-70
2022/11/16 01:40:44;;;;;;;10.17;8.37;;;11.60;99.90;;;;;;5051269;28;20178;-70
2022/11/16 01:43:23;;;;;;;9.77;8.30;;;11.60;99.90;;;;;;5052594;28;20244;-70
2022/11/16 01:45:49;;;;;;;9.57;8.67;;;11.60;99.90;;;;;;5051403;28;20179;-70
2022/11/16 01:48:20;;;;;;;9.27;7.80;;;11.60;99.90;;;;;;5052530;28;20640;-70
2022/11/16 01:50:48;;;;;;;11.73;8.03;;;11.60;99.90;;;;;;5052301;28;20171;-70
2022/11/16 01:53:14;;;;;;;8.47;7.03;;;11.60;99.90;;;;;;5051158;28;20258;-70
2022/11/16 01:55:42;;;;;;;8.43;7.53;;;11.60;99.90;;;;;;5052420;28;20179;-70
2022/11/16 01:58:22;;;;;;;10.83;7.67;;;11.50;99.90;;;;;;5051281;28;20270;-70
2022/11/16 02:00:48;;;;;;;8.97;7.70;;;11.50;99.90;;;;;;5052393;28;20173;-70
2022/11/16 02:03:17;;;;;;;7.77;6.70;;;11.50;99.90;;;;;;5050637;28;20202;-70
2022/11/16 02:05:48;;;;;;;8.93;8.03;;;11.50;99.90;;;;;;5051770;28;20171;-70
2022/11/16 02:11:46;;;;;;;8.30;7.60;;;11.50;99.90;;;;;;5052112;28;20170;-70
2022/11/16 02:14:41;;;;;;;9.70;8.87;;;11.50;99.90;;;;;;5051965;28;20209;-70
2022/11/16 02:17:16;;;;;;;8.67;7.87;;;11.50;99.90;;;;;;5015781;28;20184;-70
2022/11/16 02:19:53;;;;;;;8.43;7.63;;;11.50;99.90;;;;;;5051695;28;20170;-70
2022/11/16 02:22:36;;;;;;;8.30;7.50;;;11.50;99.90;;;;;;5052007;28;20175;-70
2022/11/16 02:25:15;;;;;;;10.27;8.27;;;11.50;99.90;;;;;;5050822;28;20479;-70
2022/11/16 02:28:10;;;;;;;8.77;7.87;;;11.50;99.90;;;;;;5051963;28;20253;-70
2022/11/16 02:30:39;;;;;;;12.33;9.10;;;11.50;99.90;;;;;;5050340;28;20201;-70
2022/11/16 02:33:11;;;;;;;8.43;7.77;;;11.50;99.90;;;;;;5052136;28;20173;-70
2022/11/16 02:35:47;;;;;;;8.23;7.43;;;11.50;99.90;;;;;;5051780;28;20174;-70
2022/11/16 02:38:20;;;;;;;10.10;8.60;;;11.50;99.90;;;;;;5050755;28;20236;-70
2022/11/16 02:40:52;;;;;;;9.27;7.90;;;11.50;99.90;;;;;;5051559;28;20182;-70
2022/11/16 02:43:27;;;;;;;9.43;8.37;;;11.50;99.90;;;;;;5051375;28;20678;-70
2022/11/16 02:45:57;;;;;;;9.70;8.80;;;11.60;99.90;;;;;;5051895;28;20194;-70
2022/11/16 02:48:45;;;;;;;9.83;9.03;;;11.60;99.90;;;;;;5051830;28;20596;-70
2022/11/16 02:51:12;;;;;;;10.00;8.20;;;11.50;99.90;;;;;;5051346;28;20194;-70
2022/11/16 02:53:51;;;;;;;8.10;7.40;;;11.60;99.90;;;;;;5051460;28;20197;-70
2022/11/16 02:56:17;;;;;;;9.10;7.70;;;11.50;99.90;;;;;;5051701;28;20196;-70
2022/11/16 02:58:43;;;;;;;8.47;7.77;;;11.50;99.90;;;;;;5051597;28;20217;-70
2022/11/16 03:01:17;;;;;;;8.50;7.80;;;11.60;99.90;;;;;;5051243;28;20167;-70
2022/11/16 03:03:53;;;;;;;9.63;8.40;;;11.60;99.90;;;;;;5050657;28;20202;-69
2022/11/16 03:06:23;;;;;;;9.57;7.77;;;11.50;99.90;;;;;;5051478;28;20178;-70
2022/11/16 03:09:03;;;;;;;8.60;7.80;;;11.50;99.90;;;;;;5051460;28;20283;-70
2022/11/16 03:14:20;;;;;;;8.83;7.93;;;11.60;99.90;;;;;;5051254;28;20255;-70
2022/11/16 03:16:56;;;;;;;14.43;7.97;;;11.50;99.90;;;;;;5051352;28;20225;-70
2022/11/16 03:19:41;;;;;;;9.27;7.80;;;11.60;99.90;;;;;;5051152;28;20166;-70
2022/11/16 03:22:19;;;;;;;9.67;8.67;;;11.50;99.90;;;;;;5051439;28;20181;-70
2022/11/16 03:24:46;;;;;;;9.20;8.40;;;11.50;99.90;;;;;;5051130;28;20241;-70
2022/11/16 03:27:34;;;;;;;8.23;7.43;;;11.50;99.90;;;;;;5051332;28;20220;-70
2022/11/16 03:30:03;;;;;;;9.93;8.93;;;11.50;99.90;;;;;;5050993;28;20174;-70
2022/11/16 03:32:47;;;;;;;11.03;9.90;;;11.50;99.90;;;;;;5051361;28;20174;-70
2022/11/16 03:35:29;;;;;;;9.67;8.67;;;11.50;99.90;;;;;;5051127;28;20179;-70
2022/11/16 03:37:58;;;;;;;10.07;8.93;;;11.40;99.90;;;;;;5050366;28;20688;-70
2022/11/16 03:40:29;;;;;;;9.00;8.20;;;11.50;99.90;;;;;;5049588;28;20257;-70
2022/11/16 03:42:55;;;;;;;12.47;8.40;;;11.50;99.90;;;;;;5051167;28;20668;-70
2022/11/16 03:45:21;;;;;;;9.13;8.23;;;11.40;99.90;;;;;;5051080;28;20544;-70
2022/11/16 03:47:46;;;;;;;9.30;8.40;;;11.50;99.90;;;;;;5051083;28;20262;-70
2022/11/16 03:50:12;;;;;;;8.73;8.03;;;11.40;99.90;;;;;;5049371;28;20656;-69
2022/11/16 03:52:38;;;;;;;9.30;8.40;;;11.50;99.90;;;;;;5051045;28;20636;-68
2022/11/16 03:55:04;;;;;;;10.63;7.97;;;11.50;99.90;;;;;;5052241;28;20195;-69
2022/11/16 03:57:30;;;;;;;9.03;8.13;;;11.40;99.90;;;;;;5054819;28;20163;-69
2022/11/16 03:59:55;;;;;;;12.13;8.57;;;11.50;99.90;;;;;;5054507;28;20626;-69
2022/11/16 04:02:21;;;;;;;10.50;9.00;;;11.40;99.90;;;;;;5054759;28;20171;-69
2022/11/16 04:24:21;;;;;;;9.07;7.30;;;11.40;99.90;;;;;;5054403;28;20210;-69
2022/11/16 04:29:37;;;;;;;5.80;5.30;;;11.40;99.90;;;;;;5054185;28;20174;-69
2022/11/16 04:37:51;;;;;;;5.70;5.40;;;11.40;99.90;;;;;;5053218;28;20193;-69
2022/11/16 04:40:22;;;;;;;5.37;5.07;;;11.40;99.90;;;;;;5053878;28;20258;-69
2022/11/16 04:42:52;;;;;;;5.10;4.80;;;11.40;99.90;;;;;;5053913;28;20163;-69
2022/11/16 04:48:03;;;;;;;4.70;4.50;;;11.40;99.90;;;;;;5054095;28;20178;-69
2022/11/16 04:50:29;;;;;;;4.63;4.43;;;11.40;99.90;;;;;;5053613;28;20186;-69
2022/11/16 04:52:54;;;;;;;4.67;4.40;;;11.40;99.90;;;;;;5053866;28;20632;-69
2022/11/16 04:55:20;;;;;;;4.80;4.40;;;11.40;99.90;;;;;;5053630;28;20199;-69
2022/11/16 04:57:46;;;;;;;5.00;4.80;;;11.40;99.90;;;;;;5053653;28;20177;-69
2022/11/16 05:00:12;;;;;;;4.60;4.40;;;11.40;99.90;;;;;;5052112;28;20261;-69
2022/11/16 05:02:38;;;;;;;5.00;4.80;;;11.40;99.90;;;;;;5053441;28;20599;-69
2022/11/16 05:05:04;;;;;;;5.20;4.90;;;11.40;99.90;;;;;;5052989;28;20278;-70
2022/11/16 05:07:29;;;;;;;4.90;4.70;;;11.40;99.90;;;;;;5053557;28;20171;-69
2022/11/16 05:09:55;;;;;;;4.60;4.40;;;11.40;99.90;;;;;;5053207;28;20175;-69
2022/11/16 05:12:24;;;;;;;4.80;4.50;;;11.40;99.90;;;;;;5053702;28;20586;-69
2022/11/16 05:14:49;;;;;;;4.73;4.53;;;11.40;99.90;;;;;;5053193;28;20226;-68
2022/11/16 05:17:16;;;;;;;5.03;4.73;;;11.40;99.90;;;;;;5053424;28;20675;-69
2022/11/16 05:22:26;;;;;;;5.10;4.70;;;11.40;99.90;;;;;;5053509;28;20185;-69
2022/11/16 05:24:52;;;;;;;5.17;4.87;;;11.40;99.90;;;;;;5053076;28;20368;-69
2022/11/16 05:27:20;;;;;;;4.80;4.60;;;11.40;99.90;;;;;;5053118;28;20171;-69
2022/11/16 05:29:48;;;;;;;4.50;4.30;;;11.40;99.90;;;;;;5051408;28;20170;-68
2022/11/16 05:32:14;;;;;;;4.57;4.27;;;11.40;99.90;;;;;;5053030;28;20166;-68
2022/11/16 05:34:40;;;;;;;4.37;4.10;;;11.40;99.90;;;;;;5051595;28;20664;-69
2022/11/16 05:37:06;;;;;;;4.57;4.37;;;11.30;99.90;;;;;;5052458;28;20590;-68
2022/11/16 05:39:31;;;;;;;4.57;4.37;;;11.20;99.90;;;;;;5052608;28;20179;-69
2022/11/16 05:41:57;;;;;;;4.57;4.27;;;11.10;99.90;;;;;;5051371;28;20175;-69
2022/11/16 05:44:22;;;;;;;4.77;4.57;;;11.00;99.90;;;;;;5052582;28;20232;-69
2022/11/16 05:46:48;;;;;;;4.80;4.60;;;10.90;99.90;;;;;;5052750;28;20171;-69
2022/11/16 05:49:14;;;;;;;5.80;4.83;;;10.80;99.90;;;;;;5051382;28;20174;-69
2022/11/16 05:51:42;;;;;;;5.37;5.07;;;10.80;99.90;;;;;;5052447;28;20178;-69
2022/11/16 05:54:09;;;;;;;5.03;4.77;;;10.70;99.90;;;;;;5052501;28;20191;-69
2022/11/16 05:56:35;;;;;;;5.67;4.80;;;10.60;99.90;;;;;;5052427;28;20171;-69
2022/11/16 05:59:01;;;;;;;5.00;4.80;;;10.60;99.90;;;;;;5051644;28;20519;-69
2022/11/16 06:01:26;;;;;;;5.90;4.90;;;10.40;99.90;;;;;;5052169;28;20605;-69
2022/11/16 06:03:52;;;;;;;5.60;5.17;;;10.40;99.90;;;;;;5052111;28;20230;-69
2022/11/16 06:06:19;;;;;;;5.40;5.10;;;10.30;99.90;;;;;;5051061;28;20179;-69
2022/11/16 06:08:45;;;;;;;6.27;5.40;;;10.20;99.90;;;;;;5052514;28;20585;-69
2022/11/16 06:11:11;;;;;;;5.67;5.27;;;10.10;99.90;;;;;;5052044;28;20163;-69
2022/11/16 06:13:37;;;;;;;5.70;5.20;;;10.10;99.90;;;;;;5050606;28;20554;-69
2022/11/16 06:16:04;;;;;;;5.30;4.90;;;10.00;99.90;;;;;;5051838;28;20185;-69
2022/11/16 06:18:30;;;;;;;4.83;4.53;;;10.00;99.90;;;;;;5051554;28;20174;-69
2022/11/16 06:20:56;;;;;;;5.47;5.17;;;9.90;99.90;;;;;;5051772;28;20186;-69
2022/11/16 06:23:22;;;;;;;5.50;5.20;;;9.80;99.90;;;;;;5050636;28;20205;-69
2022/11/16 06:25:53;;;;;;;6.30;5.83;;;9.80;99.90;;;;;;5050529;28;20229;-70
2022/11/16 06:28:19;;;;;;;6.33;5.93;;;9.80;99.90;;;;;;5050586;28;20175;-70
2022/11/16 06:30:46;;;;;;;6.13;5.50;;;9.80;99.90;;;;;;5051490;28;20170;-70
2022/11/16 06:33:11;;;;;;;5.73;5.40;;;9.80;99.90;;;;;;5051803;28;20599;-70
2022/11/16 06:35:37;;;;;;;6.27;5.17;;;9.70;99.90;;;;;;5050382;28;20261;-69
2022/11/16 06:38:03;;;;;;;6.23;5.63;;;9.70;99.90;;;;;;5050829;28;20179;-69
2022/11/16 06:40:28;;;;;;;5.50;5.20;;;9.70;99.90;;;;;;5051430;28;20221;-69
2022/11/16 06:42:56;;;;;;;5.00;4.80;;;9.70;99.90;;;;;;5051556;28;20179;-69
2022/11/16 06:45:22;;;;;;;5.50;5.20;;;9.60;99.90;;;;;;5051540;28;20182;-68
2022/11/16 06:47:47;;;;;;;8.03;5.60;;;9.60;99.90;;;;;;5050317;28;20175;-68
2022/11/16 06:50:13;;;;;;;4.97;4.67;;;9.50;99.90;;;;;;5050159;28;20178;-69
2022/11/16 06:52:39;;;;;;;5.40;4.90;;;9.50;99.90;;;;;;5050264;28;20178;-68
2022/11/16 06:55:05;;;;;;;6.53;5.37;;;9.40;99.90;;;;;;5050580;28;20573;-69
2022/11/16 06:57:34;;;;;;;7.23;5.43;;;9.40;99.90;;;;;;5051431;28;20182;-69
2022/11/16 06:59:59;;;;;;;5.77;5.37;;;9.30;99.90;;;;;;5051076;28;20175;-69
2022/11/16 07:02:25;;;;;;;6.43;5.93;;;9.30;99.90;;;;;;5051293;28;20229;-69
2022/11/16 07:04:51;;;;;;;5.33;4.90;;;9.20;99.90;;;;;;5049896;28;20206;-69
2022/11/16 07:07:16;;;;;;;5.60;5.23;;;9.20;99.90;;;;;;5049748;28;20703;-68
2022/11/16 07:09:43;;;;;;;5.43;5.13;;;9.20;99.90;;;;;;5049595;28;20170;-69
2022/11/16 07:12:09;;;;;;;6.10;5.70;;;9.20;99.90;;;;;;5050021;28;20302;-69
2022/11/16 07:14:35;;;;;;;8.13;6.00;;;9.10;99.90;;;;;;5051398;28;20754;-69
2022/11/16 07:17:00;;;;;;;8.10;6.50;;;9.10;99.90;;;;;;5050031;28;20587;-69
2022/11/16 07:19:26;;;;;;;7.37;6.87;;;9.10;99.90;;;;;;5049600;28;20179;-69
2022/11/16 07:21:52;;;;;;;6.33;5.93;;;9.10;99.90;;;;;;5049657;28;20183;-69
2022/11/16 07:24:17;;;;;;;6.67;6.13;;;9.10;99.90;;;;;;5049544;28;20237;-69
2022/11/16 07:26:43;;;;;;;7.10;6.67;;;9.10;99.90;;;;;;5050998;28;20214;-69
2022/11/16 07:29:08;;;;;;;6.23;5.93;;;9.10;99.90;;;;;;5052340;28;20265;-69
2022/11/16 07:31:34;;;;;;;5.90;5.57;;;9.10;99.90;;;;;;5054889;28;20250;-69
2022/11/16 07:33:59;;;;;;;7.07;6.17;;;9.10;99.90;;;;;;5055065;28;20631;-69
2022/11/16 07:36:25;;;;;;;7.30;6.57;;;9.10;99.90;;;;;;5052966;28;20179;-69
2022/11/16 07:38:51;;;;;;;9.60;6.50;;;9.10;99.90;;;;;;5053601;28;20256;-69
2022/11/16 07:41:18;;;;;;;7.37;5.47;;;9.20;99.90;;;;;;5054863;28;20237;-69
2022/11/16 07:43:43;;;;;;;8.73;6.33;;;9.10;99.90;;;;;;5054551;28;20213;-69
2022/11/16 07:46:12;;;;;;;5.90;5.40;;;9.20;99.90;;;;;;5053700;28;20253;-69
2022/11/16 07:48:38;;;;;;;6.50;5.97;;;9.00;99.90;;;;;;5054751;28;20182;-69
2022/11/16 07:51:06;;;;;;;6.23;5.83;;;9.20;99.90;;;;;;5054472;28;20250;-69
2022/11/16 07:53:32;;;;;;;5.63;5.23;;;9.20;99.90;;;;;;5053543;28;20251;-68
2022/11/16 07:55:59;;;;;;;5.97;5.43;;;9.30;99.90;;;;;;5054779;28;20182;-69
2022/11/16 07:58:26;;;;;;;6.70;6.10;;;9.40;99.90;;;;;;5054503;28;20202;-69
2022/11/16 08:00:51;;;;;;;5.70;5.30;;;9.50;99.90;;;;;;5052838;28;20186;-69
2022/11/16 08:03:17;;;;;;;8.77;6.97;;;9.50;99.90;;;;;;5054428;28;20210;-69
2022/11/16 08:05:43;;;;;;;7.47;5.73;;;9.70;99.90;;;;;;5052913;28;20201;-69
2022/11/16 08:08:10;;;;;;;8.60;6.20;;;9.90;99.90;;;;;;5053024;28;20656;-69
2022/11/16 08:10:35;;;;;;;5.90;5.37;;;10.10;99.90;;;;;;5054061;28;20167;-69
2022/11/16 08:13:01;;;;;;;7.23;6.60;;;10.20;99.90;;;;;;5054348;28;20628;-70
2022/11/16 08:15:27;;;;;;;5.80;5.40;;;10.30;99.90;;;;;;5054120;28;20240;-69
2022/11/16 08:17:52;;;;;;;6.30;5.80;;;10.40;99.90;;;;;;5052747;28;20183;-69
2022/11/16 08:20:18;;;;;;;6.43;5.83;;;10.60;99.90;;;;;;5053751;28;20187;-69
2022/11/16 08:22:46;;;;;;;5.10;4.70;;;10.70;99.90;;;;;;5052833;28;20594;-69
2022/11/16 08:25:12;;;;;;;9.87;5.43;;;10.90;99.90;;;;;;5054063;28;20198;-69
2022/11/16 08:27:38;;;;;;;9.90;5.63;;;10.90;99.90;;;;;;5053777;28;20579;-68
2022/11/16 08:30:08;;;;;;;6.63;5.80;;;10.80;99.90;;;;;;5053710;28;20175;-69
2022/11/16 08:32:37;;;;;;;8.07;5.03;;;10.70;99.90;;;;;;5054135;28;20182;-69
2022/11/16 08:35:03;;;;;;;6.03;5.13;;;10.60;99.90;;;;;;5053950;28;20217;-68
2022/11/16 08:37:30;;;;;;;5.50;4.87;;;10.60;99.90;;;;;;5054770;28;20179;-69
2022/11/16 08:39:56;;;;;;;5.00;4.67;;;10.80;99.90;;;;;;5052613;28;20607;-69
2022/11/16 08:42:22;;;;;;;5.83;5.33;;;10.80;99.90;;;;;;5052761;28;20187;-70
2022/11/16 08:44:47;;;;;;;5.63;4.80;;;10.80;99.90;;;;;;5053331;28;20210;-69
2022/11/16 08:47:13;;;;;;;9.57;5.10;;;10.70;99.90;;;;;;5053922;28;20171;-69
2022/11/16 08:49:39;;;;;;;9.73;5.73;;;10.70;99.90;;;;;;5052479;28;20304;-69
2022/11/16 08:52:04;;;;;;;5.37;5.00;;;11.00;99.90;;;;;;5054149;28;20182;-68
2022/11/16 08:54:31;;;;;;;6.30;4.70;;;11.30;99.90;;;;;;5053774;28;20202;-69
2022/11/16 08:56:56;;;;;;;9.00;4.97;;;11.40;99.90;;;;;;5048922;28;20190;-69
2022/11/16 08:59:22;;;;;;;6.43;5.50;;;11.30;99.90;;;;;;5036037;28;20187;-69
2022/11/16 09:01:48;;;;;;;6.70;5.57;;;11.00;99.90;;;;;;5043248;28;20187;-67
2022/11/16 09:04:15;;;;;;;5.73;5.27;;;10.80;99.90;;;;;;5038620;28;20222;-69
2022/11/16 09:06:40;;;;;;;5.50;5.20;;;10.60;99.90;;;;;;5041622;28;20175;-68
2022/11/16 09:09:06;;;;;;;6.43;5.80;;;10.30;99.90;;;;;;5046485;28;20194;-68
2022/11/16 09:11:32;;;;;;;6.87;5.77;;;10.30;99.90;;;;;;5053706;28;20532;-68
2022/11/16 09:13:57;;;;;;;5.70;5.40;;;10.40;99.90;;;;;;5046371;28;20238;-69
2022/11/16 09:16:25;;;;;;;6.37;5.80;;;10.60;99.90;;;;;;5037186;28;20619;-69
2022/11/16 09:18:51;;;;;;;16.80;15.67;;;10.80;99.90;;;;;;5042665;28;20190;-70
2022/11/16 09:21:25;;;;;;;5.83;5.20;;;11.10;99.90;;;;;;5034561;28;20187;-69
2022/11/16 09:23:52;;;;;;;7.40;5.53;;;11.40;99.90;;;;;;5038936;28;20207;-68
2022/11/16 09:26:20;;;;;;;6.90;5.10;;;11.50;99.90;;;;;;5053027;28;20204;-68
2022/11/16 09:28:46;;;;;;;5.60;5.23;;;11.70;99.90;;;;;;5051724;28;20270;-68
2022/11/16 09:31:12;;;;;;;10.80;5.47;;;11.80;99.90;;;;;;5052996;28;20167;-68
2022/11/16 09:33:37;;;;;;;5.67;5.23;;;11.90;99.90;;;;;;5051509;28;20205;-70
2022/11/16 09:36:08;;;;;;;6.10;5.03;;;12.00;99.90;;;;;;5045213;28;20186;-69
2022/11/16 09:38:42;;;;;;;5.13;4.83;;;12.00;99.90;;;;;;5031514;28;20179;-69
2022/11/16 09:41:29;;;;;;;6.33;5.70;;;12.20;99.90;;;;;;5031381;28;20194;-69
2022/11/16 09:44:20;;;;;;;8.43;4.43;;;12.50;99.90;;;;;;5020715;28;20226;-68
2022/11/16 09:46:51;;;;;;;6.40;5.30;;;12.90;99.90;;;;;;5033001;28;20254;-69
2022/11/16 09:49:27;;;;;;;7.97;4.40;;;13.40;99.90;;;;;;5047084;28;20190;-68
2022/11/16 09:51:59;;;;;;;7.70;4.87;;;13.80;99.90;;;;;;5045089;28;20174;-69
2022/11/16 09:54:28;;;;;;;4.50;4.10;;;14.00;99.90;;;;;;5032582;28;20195;-69
2022/11/16 09:56:59;;;;;;;5.17;4.13;;;14.20;59.10;;;;;;5032854;28;20233;-69
2022/11/16 09:59:30;;;;;;;5.30;4.80;;;14.30;90.30;;;;;;5031238;28;20187;-69
2022/11/16 10:02:00;;;;;;;5.20;4.40;;;14.40;53.50;;;;;;5033515;28;21024;-69
2022/11/16 10:04:42;;;;;;;8.13;4.30;;;14.60;97.80;;;;;;5042095;28;20384;-69
2022/11/16 10:07:15;;;;;;;5.00;4.20;;;14.60;23.00;;;;;;5044350;28;20185;-69
2022/11/16 10:09:42;;;;;;;5.20;3.87;;;14.60;65.40;;;;;;5040688;28;20180;-70
2022/11/16 10:12:32;;;;;;;4.13;3.73;;;14.80;70.60;;;;;;5034584;28;20191;-69
2022/11/16 10:15:11;;;;;;;6.03;3.90;;;14.90;67.20;;;;;;5032098;28;20227;-69
2022/11/16 10:18:01;;;;;;;4.17;3.90;;;14.90;1.00;;;;;;5031144;28;20253;-69
2022/11/16 10:20:38;;;;;;;3.80;3.60;;;14.80;1.00;;;;;;5032067;28;20184;-69
2022/11/16 10:23:40;;;;;;;6.30;4.23;;;14.80;1.00;;;;;;5032234;28;20493;-68
2022/11/16 10:26:37;;;;;;;6.80;4.33;;;14.80;1.00;;;;;;5028593;28;20183;-69
2022/11/16 10:29:33;;;;;;;6.27;3.67;;;14.90;1.00;;;;;;5050267;28;20182;-69
2022/11/16 10:32:10;;;;;;;4.23;3.93;;;14.90;1.00;;;;;;5033908;28;20183;-70
2022/11/16 10:34:54;;;;;;;5.50;4.53;;;15.10;1.00;;;;;;5046937;28;20220;-69
2022/11/16 10:37:22;;;;;;;6.63;4.67;;;15.10;1.00;;;;;;5043228;28;20222;-69
2022/11/16 10:39:50;;;;;;;4.00;3.80;;;15.20;1.00;;;;;;5038660;28;20195;-68
2022/11/16 10:42:21;;;;;;;4.97;4.37;;;15.40;1.00;;;;;;5032086;28;20175;-68
2022/11/16 10:45:09;;;;;;;4.90;3.57;;;15.60;1.00;;;;;;5032313;28;20249;-69
2022/11/16 10:47:49;;;;;;;6.90;3.93;;;15.70;1.00;;;;;;5035366;28;20230;-68
2022/11/16 10:50:35;;;;;;;3.63;3.33;;;15.90;1.00;;;;;;5030301;28;20175;-68
2022/11/16 10:53:01;;;;;;;3.60;3.30;;;16.00;1.00;;;;;;5046191;28;20644;-69
2022/11/16 10:55:29;;;;;;;3.70;3.40;;;16.00;83.60;;;;;;5040615;28;20233;-68
2022/11/16 10:57:58;;;;;;;6.37;5.77;;;16.10;99.90;;;;;;5046511;28;20270;-68
2022/11/16 11:00:47;;;;;;;4.30;4.00;;;16.00;1.00;;;;;;5044696;28;20546;-69
2022/11/16 11:03:14;;;;;;;3.57;3.27;;;15.90;1.00;;;;;;5029607;28;20211;-69
2022/11/16 11:05:52;;;;;;;4.87;4.10;;;16.00;1.00;;;;;;5031399;28;20604;-69
2022/11/16 11:08:29;;;;;;;6.30;4.30;;;15.90;1.00;;;;;;5039175;28;20178;-68
2022/11/16 11:14:19;;;;;;;3.93;3.63;;;16.00;1.00;;;;;;5051018;28;20883;-67
2022/11/16 11:16:44;;;;;;;3.47;3.23;;;16.20;1.00;;;;;;5028979;28;20286;-68
2022/11/16 11:19:24;;;;;;;3.67;3.40;;;16.40;1.00;;;;;;5046702;28;20266;-68
2022/11/16 11:21:58;;;;;;;3.77;3.27;;;16.60;1.00;;;;;;5038023;28;20194;-68
2022/11/16 11:24:25;;;;;;;4.80;3.30;;;16.70;1.00;;;;;;5035913;28;20258;-68
2022/11/16 11:26:55;;;;;;;3.73;3.37;;;16.80;1.00;;;;;;5050484;28;20226;-68
2022/11/16 11:29:36;;;;;;;4.63;3.60;;;16.90;1.00;;;;;;5037706;28;20262;-68
2022/11/16 11:32:12;;;;;;;6.30;3.70;;;16.90;1.00;;;;;;5036142;28;20663;-69
2022/11/16 11:34:44;;;;;;;6.10;3.20;;;16.90;1.00;;;;;;5050342;28;20202;-68
2022/11/16 11:37:36;;;;;;;4.53;4.13;;;17.00;1.00;;;;;;5047718;28;20662;-68
2022/11/16 11:40:22;;;;;;;4.10;3.77;;;16.90;1.00;;;;;;5037209;28;20184;-68
2022/11/16 11:43:20;;;;;;;4.20;3.90;;;17.10;1.00;;;;;;5031759;28;20240;-68
2022/11/16 11:45:54;;;;;;;3.37;3.17;;;17.20;1.00;;;;;;5050174;28;20191;-68
2022/11/16 11:48:41;;;;;;;3.70;3.40;;;17.30;1.00;;;;;;5044314;28;20179;-68
2022/11/16 11:51:18;;;;;;;3.30;3.10;;;17.50;1.00;;;;;;5031128;28;20271;-68
2022/11/16 11:53:57;;;;;;;3.47;3.17;;;17.50;1.00;;;;;;5029655;28;20226;-68
2022/11/16 11:56:24;;;;;;;4.00;3.13;;;17.60;1.00;;;;;;5036801;28;20191;-69
2022/11/16 11:58:50;;;;;;;3.40;3.20;;;17.60;1.00;;;;;;5037018;28;20179;-68
2022/11/16 12:01:47;;;;;;;3.50;3.30;;;17.40;1.00;;;;;;5044502;28;20187;-67
2022/11/16 12:04:37;;;;;;;3.20;3.00;;;17.10;1.00;;;;;;5029683;28;20707;-68
2022/11/16 12:07:26;;;;;;;6.00;3.60;;;17.00;1.00;;;;;;5037749;28;20186;-68
2022/11/16 12:10:26;;;;;;;3.33;3.03;;;17.00;1.00;;;;;;5045151;28;20183;-67
2022/11/16 12:13:15;;;;;;;3.97;3.20;;;17.10;1.00;;;;;;5039788;28;20194;-68
2022/11/16 12:15:57;;;;;;;3.57;3.37;;;17.10;1.00;;;;;;5032572;28;20195;-67
2022/11/16 12:18:31;;;;;;;3.40;3.23;;;17.10;1.00;;;;;;5043625;28;20183;-67
2022/11/16 12:21:12;;;;;;;3.47;3.20;;;16.90;1.00;;;;;;5051610;28;20248;-67
2022/11/16 12:24:02;;;;;;;4.07;3.30;;;16.70;1.00;;;;;;5052382;28;20577;-68
2022/11/16 12:26:47;;;;;;;3.43;3.27;;;16.60;1.00;;;;;;5052798;28;20185;-66
2022/11/16 12:29:29;;;;;;;6.53;3.87;;;16.40;1.00;;;;;;5053735;28;20175;-68
2022/11/16 12:32:29;;;;;;;4.10;3.70;;;16.30;1.00;;;;;;5036753;28;20178;-67
2022/11/16 12:35:15;;;;;;;3.83;3.23;;;16.00;1.00;;;;;;5053091;28;20320;-67
2022/11/16 12:37:49;;;;;;;3.37;3.27;;;16.00;1.00;;;;;;5052033;28;20182;-67
2022/11/16 12:40:20;;;;;;;3.77;3.47;;;16.30;1.00;;;;;;5039613;28;20179;-66
2022/11/16 12:43:09;;;;;;;3.90;3.30;;;16.40;1.00;;;;;;5042169;28;20187;-68
2022/11/16 12:45:43;;;;;;;4.03;3.63;;;16.50;1.00;;;;;;5032690;28;20298;-68
2022/11/16 12:48:54;;;;;;;3.13;3.03;;;16.50;1.00;;;;;;5045984;28;20182;-68
2022/11/16 12:51:37;;;;;;;3.47;3.27;;;16.50;1.00;;;;;;5043881;28;20476;-68
2022/11/16 12:54:28;;;;;;;3.20;3.10;;;16.40;1.00;;;;;;5032649;28;20302;-67
2022/11/16 12:57:08;;;;;;;4.37;3.93;;;16.30;1.00;;;;;;5044161;28;20186;-67
2022/11/16 13:00:03;;;;;;;4.07;3.80;;;16.10;1.00;;;;;;5044522;28;20175;-67
2022/11/16 13:02:59;;;;;;;5.10;3.67;;;15.80;1.00;;;;;;5028438;28;20231;-67
2022/11/16 13:06:13;;;;;;;3.27;3.07;;;15.50;1.00;;;;;;5049164;28;20290;-68
2022/11/16 13:08:45;;;;;;;3.40;3.20;;;15.70;1.00;;;;;;5030369;28;20175;-67
2022/11/16 13:11:26;;;;;;;3.53;2.90;;;16.10;1.00;;;;;;5026899;28;20172;-67
2022/11/16 13:13:56;;;;;;;5.60;3.20;;;16.50;1.00;;;;;;5037164;23;20231;-66
2022/11/16 13:16:23;;;;;;;5.17;3.00;;;16.50;1.00;;;;;;4998165;28;20187;-65
2022/11/16 13:18:49;;;;;;;6.50;3.50;;;16.20;1.00;;;;;;4996107;28;20189;-66
2022/11/16 13:21:28;;;;;;;3.57;3.33;;;16.10;1.00;;;;;;5026725;28;20222;-65
2022/11/16 13:24:31;;;;;;;3.30;3.10;;;16.20;1.00;;;;;;5011698;28;20619;-66
2022/11/16 13:27:51;;;;;;;4.43;3.20;;;16.10;1.00;;;;;;4994869;28;20180;-64
2022/11/16 13:30:21;;;;;;;3.60;3.17;;;16.20;1.00;;;;;;4935038;29;20179;-66
2022/11/16 13:33:21;;;;;;;3.13;2.93;;;16.40;1.00;;;;;;4990791;28;20193;-66
2022/11/16 13:35:47;;;;;;;3.43;3.10;;;16.60;1.00;;;;;;5008028;28;20200;-66
2022/11/16 13:38:12;;;;;;;3.10;3.00;;;16.70;1.00;;;;;;5002698;28;20203;-66
2022/11/16 13:40:39;;;;;;;3.60;3.40;;;16.50;1.00;;;;;;4993132;28;20181;-66
2022/11/16 13:43:08;;;;;;;3.20;2.90;;;16.20;1.00;;;;;;5013437;28;20177;-66
2022/11/16 13:45:51;;;;;;;3.53;3.30;;;15.90;1.00;;;;;;4996193;28;20201;-65
2022/11/16 13:48:29;;;;;;;3.97;3.67;;;15.70;1.00;;;;;;5003470;28;20183;-65
2022/11/16 13:50:57;;;;;;;3.67;3.33;;;15.70;1.00;;;;;;5012714;28;20180;-65
2022/11/16 13:53:35;;;;;;;3.83;3.40;;;15.80;1.00;;;;;;4977351;28;20651;-66
2022/11/16 13:56:04;;;;;;;4.83;4.20;;;16.00;1.00;;;;;;5005039;28;20204;-65
2022/11/16 13:58:31;;;;;;;10.37;5.30;;;16.20;1.00;;;;;;4983457;28;20200;-65